sensor_id;sensor_type;location;lat;lon;timestamp;P1;durP1;ratioP1;P2;durP2;ratioP2
56720;SDS011;53183;47.412;18.884;2023-03-03T00:00:13;20.80;;;10.60;;
56720;SDS011;53183;47.412;18.884;2023-03-03T00:02:41;22.90;;;11.77;;
56720;SDS011;53183;47.412;18.884;2023-03-03T00:05:08;26.42;;;11.10;;
56720;SDS011;53183;47.412;18.884;2023-03-03T00:07:36;20.73;;;10.98;;
56720;SDS011;53183;47.412;18.884;2023-03-03T00:10:04;21.55;;;10.35;;
56720;SDS011;53183;47.412;18.884;2023-03-03T00:12:31;21.83;;;10.85;;
56720;SDS011;53183;47.412;18.884;2023-03-03T00:15:00;22.45;;;10.70;;
56720;SDS011;53183;47.412;18.884;2023-03-03T00:17:28;21.15;;;11.27;;
56720;SDS011;53183;47.412;18.884;2023-03-03T00:19:57;24.05;;;11.10;;
56720;SDS011;53183;47.412;18.884;2023-03-03T00:22:27;24.67;;;11.23;;
56720;SDS011;53183;47.412;18.884;2023-03-03T00:25:39;18.08;;;9.75;;
56720;SDS011;53183;47.412;18.884;2023-03-03T00:28:00;23.30;;;10.95;;
56720;SDS011;53183;47.412;18.884;2023-03-03T00:30:50;24.35;;;10.13;;
56720;SDS011;53183;47.412;18.884;2023-03-03T00:33:27;20.00;;;9.55;;
56720;SDS011;53183;47.412;18.884;2023-03-03T00:36:21;22.60;;;9.80;;
56720;SDS011;53183;47.412;18.884;2023-03-03T00:41:57;19.45;;;9.15;;
56720;SDS011;53183;47.412;18.884;2023-03-03T00:47:29;24.50;;;10.23;;
56720;SDS011;53183;47.412;18.884;2023-03-03T00:53:18;26.33;;;11.07;;
56720;SDS011;53183;47.412;18.884;2023-03-03T00:55:39;25.77;;;12.85;;
56720;SDS011;53183;47.412;18.884;2023-03-03T00:58:06;32.35;;;13.40;;
56720;SDS011;53183;47.412;18.884;2023-03-03T01:00:34;30.60;;;14.07;;
56720;SDS011;53183;47.412;18.884;2023-03-03T01:03:13;29.23;;;13.70;;
56720;SDS011;53183;47.412;18.884;2023-03-03T01:05:43;22.83;;;10.93;;
56720;SDS011;53183;47.412;18.884;2023-03-03T01:08:10;30.73;;;12.37;;
56720;SDS011;53183;47.412;18.884;2023-03-03T01:10:41;29.65;;;12.98;;
56720;SDS011;53183;47.412;18.884;2023-03-03T01:13:17;27.48;;;12.43;;
56720;SDS011;53183;47.412;18.884;2023-03-03T01:15:46;24.02;;;11.57;;
56720;SDS011;53183;47.412;18.884;2023-03-03T01:18:14;24.70;;;10.80;;
56720;SDS011;53183;47.412;18.884;2023-03-03T01:20:41;23.65;;;11.82;;
56720;SDS011;53183;47.412;18.884;2023-03-03T01:23:08;28.70;;;12.10;;
56720;SDS011;53183;47.412;18.884;2023-03-03T01:25:36;30.88;;;12.07;;
56720;SDS011;53183;47.412;18.884;2023-03-03T01:28:04;28.02;;;11.30;;
56720;SDS011;53183;47.412;18.884;2023-03-03T01:30:31;34.03;;;11.73;;
56720;SDS011;53183;47.412;18.884;2023-03-03T01:32:59;23.02;;;11.65;;
56720;SDS011;53183;47.412;18.884;2023-03-03T01:35:27;20.75;;;10.35;;
56720;SDS011;53183;47.412;18.884;2023-03-03T01:37:56;25.62;;;10.77;;
56720;SDS011;53183;47.412;18.884;2023-03-03T01:40:27;28.58;;;11.40;;
56720;SDS011;53183;47.412;18.884;2023-03-03T01:42:57;18.65;;;10.80;;
56720;SDS011;53183;47.412;18.884;2023-03-03T01:45:26;25.17;;;11.20;;
56720;SDS011;53183;47.412;18.884;2023-03-03T01:50:30;24.35;;;11.55;;
56720;SDS011;53183;47.412;18.884;2023-03-03T01:53:02;30.48;;;12.50;;
56720;SDS011;53183;47.412;18.884;2023-03-03T01:55:33;25.48;;;12.43;;
56720;SDS011;53183;47.412;18.884;2023-03-03T01:58:24;26.83;;;12.43;;
56720;SDS011;53183;47.412;18.884;2023-03-03T02:01:01;24.10;;;11.25;;
56720;SDS011;53183;47.412;18.884;2023-03-03T02:03:31;23.95;;;11.57;;
56720;SDS011;53183;47.412;18.884;2023-03-03T02:06:02;24.20;;;12.63;;
56720;SDS011;53183;47.412;18.884;2023-03-03T02:08:36;25.23;;;10.68;;
56720;SDS011;53183;47.412;18.884;2023-03-03T02:11:12;22.58;;;9.75;;
56720;SDS011;53183;47.412;18.884;2023-03-03T02:13:40;20.95;;;10.35;;
56720;SDS011;53183;47.412;18.884;2023-03-03T02:16:08;22.35;;;10.27;;
56720;SDS011;53183;47.412;18.884;2023-03-03T02:18:35;22.58;;;11.15;;
56720;SDS011;53183;47.412;18.884;2023-03-03T02:26:42;25.15;;;10.85;;
56720;SDS011;53183;47.412;18.884;2023-03-03T02:29:12;21.45;;;10.73;;
56720;SDS011;53183;47.412;18.884;2023-03-03T02:31:39;24.52;;;10.85;;
56720;SDS011;53183;47.412;18.884;2023-03-03T02:34:06;21.95;;;10.02;;
56720;SDS011;53183;47.412;18.884;2023-03-03T02:36:35;20.33;;;10.70;;
56720;SDS011;53183;47.412;18.884;2023-03-03T02:39:15;24.37;;;11.15;;
56720;SDS011;53183;47.412;18.884;2023-03-03T02:44:44;25.02;;;10.95;;
56720;SDS011;53183;47.412;18.884;2023-03-03T02:47:12;26.25;;;11.73;;
56720;SDS011;53183;47.412;18.884;2023-03-03T02:49:39;21.95;;;10.63;;
56720;SDS011;53183;47.412;18.884;2023-03-03T02:52:09;22.23;;;10.63;;
56720;SDS011;53183;47.412;18.884;2023-03-03T02:54:38;28.85;;;11.12;;
56720;SDS011;53183;47.412;18.884;2023-03-03T02:57:06;22.48;;;10.82;;
56720;SDS011;53183;47.412;18.884;2023-03-03T02:59:34;23.08;;;9.82;;
56720;SDS011;53183;47.412;18.884;2023-03-03T03:02:03;21.20;;;9.95;;
56720;SDS011;53183;47.412;18.884;2023-03-03T03:04:30;21.62;;;10.73;;
56720;SDS011;53183;47.412;18.884;2023-03-03T03:06:57;20.50;;;10.15;;
56720;SDS011;53183;47.412;18.884;2023-03-03T03:09:25;18.20;;;9.25;;
56720;SDS011;53183;47.412;18.884;2023-03-03T03:11:54;19.12;;;9.80;;
56720;SDS011;53183;47.412;18.884;2023-03-03T03:14:22;22.95;;;9.13;;
56720;SDS011;53183;47.412;18.884;2023-03-03T03:16:50;17.62;;;9.52;;
56720;SDS011;53183;47.412;18.884;2023-03-03T03:19:18;20.60;;;10.00;;
56720;SDS011;53183;47.412;18.884;2023-03-03T03:21:46;18.05;;;9.85;;
56720;SDS011;53183;47.412;18.884;2023-03-03T03:24:13;21.60;;;9.05;;
56720;SDS011;53183;47.412;18.884;2023-03-03T03:26:41;18.20;;;9.57;;
56720;SDS011;53183;47.412;18.884;2023-03-03T03:29:08;15.90;;;8.07;;
56720;SDS011;53183;47.412;18.884;2023-03-03T03:31:37;20.37;;;9.07;;
56720;SDS011;53183;47.412;18.884;2023-03-03T03:34:05;16.58;;;9.95;;
56720;SDS011;53183;47.412;18.884;2023-03-03T03:36:32;24.95;;;9.90;;
56720;SDS011;53183;47.412;18.884;2023-03-03T03:39:00;19.65;;;9.60;;
56720;SDS011;53183;47.412;18.884;2023-03-03T03:41:29;19.35;;;9.35;;
56720;SDS011;53183;47.412;18.884;2023-03-03T03:43:56;17.40;;;9.27;;
56720;SDS011;53183;47.412;18.884;2023-03-03T03:46:24;21.23;;;9.90;;
56720;SDS011;53183;47.412;18.884;2023-03-03T03:48:51;19.30;;;10.23;;
56720;SDS011;53183;47.412;18.884;2023-03-03T03:51:19;25.98;;;10.02;;
56720;SDS011;53183;47.412;18.884;2023-03-03T03:53:46;19.95;;;9.50;;
56720;SDS011;53183;47.412;18.884;2023-03-03T03:56:14;23.38;;;10.48;;
56720;SDS011;53183;47.412;18.884;2023-03-03T03:58:42;17.55;;;9.98;;
56720;SDS011;53183;47.412;18.884;2023-03-03T04:01:10;22.67;;;8.95;;
56720;SDS011;53183;47.412;18.884;2023-03-03T04:03:38;18.73;;;8.95;;
56720;SDS011;53183;47.412;18.884;2023-03-03T04:06:06;23.45;;;9.60;;
56720;SDS011;53183;47.412;18.884;2023-03-03T04:08:33;19.52;;;8.95;;
56720;SDS011;53183;47.412;18.884;2023-03-03T04:11:01;16.60;;;8.80;;
56720;SDS011;53183;47.412;18.884;2023-03-03T04:13:29;17.75;;;8.95;;
56720;SDS011;53183;47.412;18.884;2023-03-03T04:15:58;20.62;;;9.07;;
56720;SDS011;53183;47.412;18.884;2023-03-03T04:18:25;16.37;;;8.05;;
56720;SDS011;53183;47.412;18.884;2023-03-03T04:20:53;18.20;;;8.82;;
56720;SDS011;53183;47.412;18.884;2023-03-03T04:23:20;17.30;;;8.50;;
56720;SDS011;53183;47.412;18.884;2023-03-03T04:25:48;19.65;;;9.07;;
56720;SDS011;53183;47.412;18.884;2023-03-03T04:28:16;17.15;;;8.68;;
56720;SDS011;53183;47.412;18.884;2023-03-03T04:30:44;18.87;;;8.65;;
56720;SDS011;53183;47.412;18.884;2023-03-03T04:33:13;18.20;;;9.23;;
56720;SDS011;53183;47.412;18.884;2023-03-03T04:35:40;18.95;;;9.85;;
56720;SDS011;53183;47.412;18.884;2023-03-03T04:38:07;18.33;;;9.20;;
56720;SDS011;53183;47.412;18.884;2023-03-03T04:40:35;20.02;;;8.85;;
56720;SDS011;53183;47.412;18.884;2023-03-03T04:43:02;18.62;;;8.38;;
56720;SDS011;53183;47.412;18.884;2023-03-03T04:45:30;15.93;;;7.55;;
56720;SDS011;53183;47.412;18.884;2023-03-03T04:47:58;19.02;;;8.95;;
56720;SDS011;53183;47.412;18.884;2023-03-03T04:50:25;20.92;;;9.32;;
56720;SDS011;53183;47.412;18.884;2023-03-03T04:52:52;16.15;;;8.90;;
56720;SDS011;53183;47.412;18.884;2023-03-03T04:55:20;17.65;;;9.45;;
56720;SDS011;53183;47.412;18.884;2023-03-03T04:57:47;22.05;;;9.75;;
56720;SDS011;53183;47.412;18.884;2023-03-03T05:00:14;24.00;;;10.35;;
56720;SDS011;53183;47.412;18.884;2023-03-03T05:02:42;21.77;;;8.85;;
56720;SDS011;53183;47.412;18.884;2023-03-03T05:05:11;18.35;;;9.25;;
56720;SDS011;53183;47.412;18.884;2023-03-03T05:07:39;18.73;;;9.20;;
56720;SDS011;53183;47.412;18.884;2023-03-03T05:10:07;20.40;;;8.48;;
56720;SDS011;53183;47.412;18.884;2023-03-03T05:12:34;24.23;;;8.20;;
56720;SDS011;53183;47.412;18.884;2023-03-03T05:15:02;22.48;;;9.50;;
56720;SDS011;53183;47.412;18.884;2023-03-03T05:17:30;15.60;;;8.40;;
56720;SDS011;53183;47.412;18.884;2023-03-03T05:19:57;16.50;;;9.10;;
56720;SDS011;53183;47.412;18.884;2023-03-03T05:22:24;20.65;;;8.98;;
56720;SDS011;53183;47.412;18.884;2023-03-03T05:24:52;13.90;;;7.35;;
56720;SDS011;53183;47.412;18.884;2023-03-03T05:27:20;18.02;;;8.55;;
56720;SDS011;53183;47.412;18.884;2023-03-03T05:29:47;14.98;;;7.93;;
56720;SDS011;53183;47.412;18.884;2023-03-03T05:32:14;16.85;;;8.55;;
56720;SDS011;53183;47.412;18.884;2023-03-03T05:34:41;17.15;;;8.40;;
56720;SDS011;53183;47.412;18.884;2023-03-03T05:37:09;16.50;;;8.20;;
56720;SDS011;53183;47.412;18.884;2023-03-03T05:39:36;18.65;;;9.90;;
56720;SDS011;53183;47.412;18.884;2023-03-03T05:42:03;23.90;;;9.52;;
56720;SDS011;53183;47.412;18.884;2023-03-03T05:44:31;17.75;;;9.10;;
56720;SDS011;53183;47.412;18.884;2023-03-03T05:46:58;21.02;;;10.65;;
56720;SDS011;53183;47.412;18.884;2023-03-03T05:49:25;15.50;;;8.82;;
56720;SDS011;53183;47.412;18.884;2023-03-03T05:51:52;27.52;;;9.38;;
56720;SDS011;53183;47.412;18.884;2023-03-03T05:54:20;18.10;;;8.90;;
56720;SDS011;53183;47.412;18.884;2023-03-03T05:56:47;25.70;;;9.93;;
56720;SDS011;53183;47.412;18.884;2023-03-03T05:59:14;17.50;;;8.65;;
56720;SDS011;53183;47.412;18.884;2023-03-03T06:01:41;21.17;;;8.88;;
56720;SDS011;53183;47.412;18.884;2023-03-03T06:04:09;18.58;;;9.23;;
56720;SDS011;53183;47.412;18.884;2023-03-03T06:06:36;17.25;;;8.88;;
56720;SDS011;53183;47.412;18.884;2023-03-03T06:09:03;20.62;;;9.68;;
56720;SDS011;53183;47.412;18.884;2023-03-03T06:11:31;17.55;;;8.98;;
56720;SDS011;53183;47.412;18.884;2023-03-03T06:13:58;14.85;;;8.05;;
56720;SDS011;53183;47.412;18.884;2023-03-03T06:16:25;20.20;;;9.88;;
56720;SDS011;53183;47.412;18.884;2023-03-03T06:18:53;26.98;;;9.43;;
56720;SDS011;53183;47.412;18.884;2023-03-03T06:21:20;18.58;;;8.23;;
56720;SDS011;53183;47.412;18.884;2023-03-03T06:23:47;17.62;;;8.20;;
56720;SDS011;53183;47.412;18.884;2023-03-03T06:26:15;20.92;;;9.57;;
56720;SDS011;53183;47.412;18.884;2023-03-03T06:28:42;42.67;;;19.10;;
56720;SDS011;53183;47.412;18.884;2023-03-03T06:31:09;43.83;;;22.02;;
56720;SDS011;53183;47.412;18.884;2023-03-03T06:33:36;51.05;;;23.70;;
56720;SDS011;53183;47.412;18.884;2023-03-03T06:36:04;52.30;;;22.75;;
56720;SDS011;53183;47.412;18.884;2023-03-03T06:38:31;37.15;;;20.42;;
56720;SDS011;53183;47.412;18.884;2023-03-03T06:40:59;40.42;;;21.05;;
56720;SDS011;53183;47.412;18.884;2023-03-03T06:43:27;37.33;;;20.15;;
56720;SDS011;53183;47.412;18.884;2023-03-03T06:45:55;44.17;;;19.08;;
56720;SDS011;53183;47.412;18.884;2023-03-03T06:48:22;32.55;;;18.55;;
56720;SDS011;53183;47.412;18.884;2023-03-03T06:50:49;36.60;;;18.67;;
56720;SDS011;53183;47.412;18.884;2023-03-03T06:53:17;42.42;;;19.73;;
56720;SDS011;53183;47.412;18.884;2023-03-03T06:55:45;41.15;;;19.42;;
56720;SDS011;53183;47.412;18.884;2023-03-03T06:58:21;38.28;;;18.27;;
56720;SDS011;53183;47.412;18.884;2023-03-03T07:00:56;37.35;;;19.42;;
56720;SDS011;53183;47.412;18.884;2023-03-03T07:05:56;34.00;;;16.85;;
56720;SDS011;53183;47.412;18.884;2023-03-03T07:08:23;39.00;;;20.17;;
56720;SDS011;53183;47.412;18.884;2023-03-03T07:10:51;38.95;;;19.70;;
56720;SDS011;53183;47.412;18.884;2023-03-03T07:13:24;35.05;;;18.45;;
56720;SDS011;53183;47.412;18.884;2023-03-03T07:15:53;40.85;;;18.45;;
56720;SDS011;53183;47.412;18.884;2023-03-03T07:23:43;45.05;;;18.30;;
56720;SDS011;53183;47.412;18.884;2023-03-03T07:26:13;34.95;;;17.73;;
56720;SDS011;53183;47.412;18.884;2023-03-03T07:28:43;38.65;;;18.05;;
56720;SDS011;53183;47.412;18.884;2023-03-03T07:31:29;43.72;;;18.58;;
56720;SDS011;53183;47.412;18.884;2023-03-03T07:34:01;40.33;;;18.92;;
56720;SDS011;53183;47.412;18.884;2023-03-03T07:36:39;34.58;;;18.45;;
56720;SDS011;53183;47.412;18.884;2023-03-03T07:42:13;35.35;;;16.60;;
56720;SDS011;53183;47.412;18.884;2023-03-03T07:44:41;31.23;;;15.13;;
56720;SDS011;53183;47.412;18.884;2023-03-03T07:49:48;37.35;;;16.10;;
56720;SDS011;53183;47.412;18.884;2023-03-03T07:53:00;32.30;;;16.20;;
56720;SDS011;53183;47.412;18.884;2023-03-03T07:55:19;34.15;;;15.77;;
56720;SDS011;53183;47.412;18.884;2023-03-03T07:57:54;39.88;;;16.12;;
56720;SDS011;53183;47.412;18.884;2023-03-03T08:10:35;28.50;;;13.95;;
56720;SDS011;53183;47.412;18.884;2023-03-03T08:13:15;48.13;;;14.43;;
56720;SDS011;53183;47.412;18.884;2023-03-03T08:15:44;27.87;;;13.80;;
56720;SDS011;53183;47.412;18.884;2023-03-03T08:18:45;29.48;;;14.60;;
56720;SDS011;53183;47.412;18.884;2023-03-03T08:21:21;28.65;;;12.63;;
56720;SDS011;53183;47.412;18.884;2023-03-03T08:23:50;23.62;;;12.52;;
56720;SDS011;53183;47.412;18.884;2023-03-03T08:26:20;28.42;;;13.70;;
56720;SDS011;53183;47.412;18.884;2023-03-03T08:28:48;28.90;;;13.77;;
56720;SDS011;53183;47.412;18.884;2023-03-03T08:31:16;30.90;;;13.98;;
56720;SDS011;53183;47.412;18.884;2023-03-03T08:34:00;26.60;;;13.50;;
56720;SDS011;53183;47.412;18.884;2023-03-03T08:36:29;30.65;;;13.40;;
56720;SDS011;53183;47.412;18.884;2023-03-03T08:39:00;26.35;;;12.82;;
56720;SDS011;53183;47.412;18.884;2023-03-03T08:41:27;28.87;;;13.00;;
56720;SDS011;53183;47.412;18.884;2023-03-03T08:43:55;27.05;;;14.05;;
56720;SDS011;53183;47.412;18.884;2023-03-03T08:46:22;31.00;;;15.25;;
56720;SDS011;53183;47.412;18.884;2023-03-03T08:48:49;27.58;;;14.18;;
56720;SDS011;53183;47.412;18.884;2023-03-03T08:51:17;30.15;;;15.23;;
56720;SDS011;53183;47.412;18.884;2023-03-03T08:53:44;30.00;;;12.80;;
56720;SDS011;53183;47.412;18.884;2023-03-03T08:56:12;27.45;;;13.38;;
56720;SDS011;53183;47.412;18.884;2023-03-03T08:58:39;27.95;;;14.77;;
56720;SDS011;53183;47.412;18.884;2023-03-03T09:01:28;35.25;;;15.52;;
56720;SDS011;53183;47.412;18.884;2023-03-03T09:03:57;27.67;;;15.10;;
56720;SDS011;53183;47.412;18.884;2023-03-03T09:06:24;27.15;;;13.98;;
56720;SDS011;53183;47.412;18.884;2023-03-03T09:08:51;28.30;;;14.68;;
56720;SDS011;53183;47.412;18.884;2023-03-03T09:11:22;32.67;;;15.57;;
56720;SDS011;53183;47.412;18.884;2023-03-03T09:13:58;31.60;;;13.88;;
56720;SDS011;53183;47.412;18.884;2023-03-03T09:16:33;28.85;;;14.05;;
56720;SDS011;53183;47.412;18.884;2023-03-03T09:24:47;33.05;;;15.50;;
56720;SDS011;53183;47.412;18.884;2023-03-03T09:27:23;31.70;;;15.40;;
56720;SDS011;53183;47.412;18.884;2023-03-03T09:30:02;32.25;;;15.43;;
56720;SDS011;53183;47.412;18.884;2023-03-03T09:32:53;31.83;;;14.82;;
56720;SDS011;53183;47.412;18.884;2023-03-03T09:37:52;29.55;;;14.23;;
56720;SDS011;53183;47.412;18.884;2023-03-03T10:02:41;27.80;;;12.98;;
56720;SDS011;53183;47.412;18.884;2023-03-03T10:05:28;30.35;;;14.10;;
56720;SDS011;53183;47.412;18.884;2023-03-03T10:16:47;26.75;;;13.98;;
56720;SDS011;53183;47.412;18.884;2023-03-03T10:21:58;32.17;;;16.23;;
56720;SDS011;53183;47.412;18.884;2023-03-03T10:33:44;23.70;;;12.32;;
56720;SDS011;53183;47.412;18.884;2023-03-03T10:36:22;27.20;;;11.00;;
56720;SDS011;53183;47.412;18.884;2023-03-03T10:50:00;23.27;;;11.85;;
56720;SDS011;53183;47.412;18.884;2023-03-03T10:57:35;24.87;;;10.90;;
56720;SDS011;53183;47.412;18.884;2023-03-03T11:00:20;18.30;;;9.32;;
56720;SDS011;53183;47.412;18.884;2023-03-03T11:05:53;21.90;;;11.02;;
56720;SDS011;53183;47.412;18.884;2023-03-03T11:08:29;22.92;;;9.85;;
56720;SDS011;53183;47.412;18.884;2023-03-03T11:11:32;18.85;;;10.05;;
56720;SDS011;53183;47.412;18.884;2023-03-03T11:14:25;25.30;;;12.55;;
56720;SDS011;53183;47.412;18.884;2023-03-03T11:19:45;24.05;;;10.77;;
56720;SDS011;53183;47.412;18.884;2023-03-03T11:22:32;24.48;;;11.23;;
56720;SDS011;53183;47.412;18.884;2023-03-03T11:28:35;22.55;;;10.02;;
56720;SDS011;53183;47.412;18.884;2023-03-03T11:31:47;22.87;;;11.88;;
56720;SDS011;53183;47.412;18.884;2023-03-03T11:40:16;26.77;;;10.52;;
56720;SDS011;53183;47.412;18.884;2023-03-03T11:43:02;21.52;;;11.07;;
56720;SDS011;53183;47.412;18.884;2023-03-03T11:45:41;20.15;;;9.68;;
56720;SDS011;53183;47.412;18.884;2023-03-03T11:56:26;17.02;;;9.18;;
56720;SDS011;53183;47.412;18.884;2023-03-03T12:01:36;16.00;;;9.18;;
56720;SDS011;53183;47.412;18.884;2023-03-03T12:04:19;19.30;;;9.75;;
56720;SDS011;53183;47.412;18.884;2023-03-03T12:13:00;18.50;;;10.32;;
56720;SDS011;53183;47.412;18.884;2023-03-03T12:27:17;20.42;;;10.35;;
56720;SDS011;53183;47.412;18.884;2023-03-03T12:32:28;20.27;;;9.73;;
56720;SDS011;53183;47.412;18.884;2023-03-03T12:35:25;16.83;;;9.77;;
56720;SDS011;53183;47.412;18.884;2023-03-03T12:40:32;16.75;;;9.55;;
56720;SDS011;53183;47.412;18.884;2023-03-03T12:48:41;22.52;;;10.68;;
56720;SDS011;53183;47.412;18.884;2023-03-03T13:07:21;18.02;;;9.35;;
56720;SDS011;53183;47.412;18.884;2023-03-03T13:10:04;21.20;;;9.77;;
56720;SDS011;53183;47.412;18.884;2023-03-03T13:18:14;18.37;;;9.93;;
56720;SDS011;53183;47.412;18.884;2023-03-03T13:21:08;20.12;;;9.15;;
56720;SDS011;53183;47.412;18.884;2023-03-03T13:23:52;17.48;;;9.40;;
56720;SDS011;53183;47.412;18.884;2023-03-03T13:26:30;19.58;;;8.98;;
56720;SDS011;53183;47.412;18.884;2023-03-03T13:31:56;20.27;;;10.07;;
56720;SDS011;53183;47.412;18.884;2023-03-03T13:39:50;24.42;;;10.98;;
56720;SDS011;53183;47.412;18.884;2023-03-03T13:42:24;21.98;;;10.80;;
56720;SDS011;53183;47.412;18.884;2023-03-03T13:44:58;16.52;;;10.77;;
56720;SDS011;53183;47.412;18.884;2023-03-03T13:47:36;24.60;;;11.88;;
56720;SDS011;53183;47.412;18.884;2023-03-03T13:58:51;19.08;;;10.10;;
56720;SDS011;53183;47.412;18.884;2023-03-03T14:04:30;17.73;;;9.23;;
56720;SDS011;53183;47.412;18.884;2023-03-03T14:07:03;18.55;;;10.18;;
56720;SDS011;53183;47.412;18.884;2023-03-03T14:09:50;20.73;;;9.00;;
56720;SDS011;53183;47.412;18.884;2023-03-03T14:12:32;19.87;;;9.73;;
56720;SDS011;53183;47.412;18.884;2023-03-03T14:20:36;16.40;;;8.35;;
56720;SDS011;53183;47.412;18.884;2023-03-03T14:25:49;17.33;;;9.30;;
56720;SDS011;53183;47.412;18.884;2023-03-03T14:28:21;19.33;;;9.20;;
56720;SDS011;53183;47.412;18.884;2023-03-03T14:30:52;16.48;;;9.30;;
56720;SDS011;53183;47.412;18.884;2023-03-03T14:33:25;17.25;;;9.32;;
56720;SDS011;53183;47.412;18.884;2023-03-03T14:38:35;18.12;;;9.65;;
56720;SDS011;53183;47.412;18.884;2023-03-03T14:43:38;18.73;;;10.80;;
56720;SDS011;53183;47.412;18.884;2023-03-03T14:48:58;18.35;;;9.57;;
56720;SDS011;53183;47.412;18.884;2023-03-03T14:54:27;15.43;;;10.57;;
56720;SDS011;53183;47.412;18.884;2023-03-03T15:05:24;24.10;;;11.80;;
56720;SDS011;53183;47.412;18.884;2023-03-03T15:10:35;21.42;;;12.37;;
56720;SDS011;53183;47.412;18.884;2023-03-03T15:18:25;21.62;;;12.10;;
56720;SDS011;53183;47.412;18.884;2023-03-03T15:21:11;24.02;;;11.55;;
56720;SDS011;53183;47.412;18.884;2023-03-03T15:29:03;21.42;;;11.00;;
56720;SDS011;53183;47.412;18.884;2023-03-03T15:34:37;18.98;;;12.02;;
56720;SDS011;53183;47.412;18.884;2023-03-03T15:40:04;23.23;;;10.73;;
56720;SDS011;53183;47.412;18.884;2023-03-03T15:42:41;22.90;;;11.00;;
56720;SDS011;53183;47.412;18.884;2023-03-03T15:47:48;22.35;;;10.77;;
56720;SDS011;53183;47.412;18.884;2023-03-03T15:50:37;22.23;;;10.60;;
56720;SDS011;53183;47.412;18.884;2023-03-03T15:59:36;20.90;;;10.25;;
56720;SDS011;53183;47.412;18.884;2023-03-03T16:02:15;22.80;;;12.07;;
56720;SDS011;53183;47.412;18.884;2023-03-03T16:07:29;28.40;;;12.82;;
56720;SDS011;53183;47.412;18.884;2023-03-03T16:10:10;22.73;;;12.88;;
56720;SDS011;53183;47.412;18.884;2023-03-03T16:12:54;29.52;;;13.77;;
56720;SDS011;53183;47.412;18.884;2023-03-03T16:20:44;29.70;;;15.77;;
56720;SDS011;53183;47.412;18.884;2023-03-03T16:26:26;32.72;;;15.27;;
56720;SDS011;53183;47.412;18.884;2023-03-03T16:32:23;33.65;;;16.58;;
56720;SDS011;53183;47.412;18.884;2023-03-03T16:35:13;32.85;;;16.42;;
56720;SDS011;53183;47.412;18.884;2023-03-03T16:40:36;32.42;;;16.20;;
56720;SDS011;53183;47.412;18.884;2023-03-03T16:45:45;36.28;;;16.85;;
56720;SDS011;53183;47.412;18.884;2023-03-03T16:56:24;38.25;;;17.52;;
56720;SDS011;53183;47.412;18.884;2023-03-03T17:01:49;39.33;;;19.62;;
56720;SDS011;53183;47.412;18.884;2023-03-03T17:07:17;34.63;;;17.65;;
56720;SDS011;53183;47.412;18.884;2023-03-03T17:10:01;34.22;;;18.73;;
56720;SDS011;53183;47.412;18.884;2023-03-03T17:12:51;32.55;;;17.17;;
56720;SDS011;53183;47.412;18.884;2023-03-03T17:15:48;30.45;;;15.80;;
56720;SDS011;53183;47.412;18.884;2023-03-03T17:26:48;37.47;;;18.30;;
56720;SDS011;53183;47.412;18.884;2023-03-03T17:37:38;36.15;;;17.95;;
56720;SDS011;53183;47.412;18.884;2023-03-03T17:40:31;42.50;;;20.45;;
56720;SDS011;53183;47.412;18.884;2023-03-03T17:45:53;38.50;;;19.50;;
56720;SDS011;53183;47.412;18.884;2023-03-03T18:00:00;44.75;;;21.62;;
56720;SDS011;53183;47.412;18.884;2023-03-03T18:02:52;38.15;;;18.90;;
56720;SDS011;53183;47.412;18.884;2023-03-03T18:12:02;50.78;;;22.00;;
56720;SDS011;53183;47.412;18.884;2023-03-03T18:22:55;55.92;;;26.10;;
56720;SDS011;53183;47.412;18.884;2023-03-03T18:33:59;55.75;;;25.15;;
56720;SDS011;53183;47.412;18.884;2023-03-03T18:36:54;50.53;;;25.52;;
56720;SDS011;53183;47.412;18.884;2023-03-03T18:39:35;52.42;;;24.15;;
56720;SDS011;53183;47.412;18.884;2023-03-03T18:42:11;59.65;;;25.50;;
56720;SDS011;53183;47.412;18.884;2023-03-03T18:45:08;52.78;;;24.90;;
56720;SDS011;53183;47.412;18.884;2023-03-03T18:50:38;55.75;;;26.85;;
56720;SDS011;53183;47.412;18.884;2023-03-03T19:06:28;53.15;;;22.80;;
56720;SDS011;53183;47.412;18.884;2023-03-03T19:08:59;55.33;;;23.70;;
56720;SDS011;53183;47.412;18.884;2023-03-03T19:16:52;58.67;;;25.85;;
56720;SDS011;53183;47.412;18.884;2023-03-03T19:19:29;54.15;;;24.17;;
56720;SDS011;53183;47.412;18.884;2023-03-03T19:22:18;55.88;;;26.00;;
56720;SDS011;53183;47.412;18.884;2023-03-03T19:25:01;54.55;;;25.10;;
56720;SDS011;53183;47.412;18.884;2023-03-03T19:30:24;58.28;;;24.77;;
56720;SDS011;53183;47.412;18.884;2023-03-03T19:41:28;52.38;;;23.85;;
56720;SDS011;53183;47.412;18.884;2023-03-03T19:49:25;55.35;;;22.77;;
56720;SDS011;53183;47.412;18.884;2023-03-03T19:52:17;51.40;;;22.75;;
56720;SDS011;53183;47.412;18.884;2023-03-03T20:11:35;45.97;;;20.10;;
56720;SDS011;53183;47.412;18.884;2023-03-03T20:17:20;45.15;;;18.42;;
56720;SDS011;53183;47.412;18.884;2023-03-03T20:31:23;45.88;;;18.35;;
56720;SDS011;53183;47.412;18.884;2023-03-03T20:34:08;36.47;;;16.15;;
56720;SDS011;53183;47.412;18.884;2023-03-03T20:36:51;44.35;;;17.27;;
56720;SDS011;53183;47.412;18.884;2023-03-03T20:39:38;39.33;;;19.35;;
56720;SDS011;53183;47.412;18.884;2023-03-03T20:45:14;43.47;;;21.48;;
56720;SDS011;53183;47.412;18.884;2023-03-03T20:56:02;68.75;;;28.35;;
56720;SDS011;53183;47.412;18.884;2023-03-03T20:59:23;58.58;;;24.87;;
56720;SDS011;53183;47.412;18.884;2023-03-03T21:05:05;43.33;;;19.37;;
56720;SDS011;53183;47.412;18.884;2023-03-03T21:08:16;40.67;;;19.10;;
56720;SDS011;53183;47.412;18.884;2023-03-03T21:10:36;35.25;;;16.92;;
56720;SDS011;53183;47.412;18.884;2023-03-03T21:16:10;40.30;;;18.27;;
56720;SDS011;53183;47.412;18.884;2023-03-03T21:19:00;39.90;;;18.05;;
56720;SDS011;53183;47.412;18.884;2023-03-03T21:24:06;43.73;;;17.10;;
56720;SDS011;53183;47.412;18.884;2023-03-03T21:29:28;39.10;;;17.58;;
56720;SDS011;53183;47.412;18.884;2023-03-03T21:31:58;41.22;;;18.58;;
56720;SDS011;53183;47.412;18.884;2023-03-03T21:34:28;40.20;;;16.50;;
56720;SDS011;53183;47.412;18.884;2023-03-03T21:37:01;43.13;;;16.95;;
56720;SDS011;53183;47.412;18.884;2023-03-03T21:39:39;40.40;;;17.60;;
56720;SDS011;53183;47.412;18.884;2023-03-03T21:42:13;43.00;;;18.90;;
56720;SDS011;53183;47.412;18.884;2023-03-03T21:44:46;42.25;;;17.25;;
56720;SDS011;53183;47.412;18.884;2023-03-03T21:47:17;32.53;;;15.93;;
56720;SDS011;53183;47.412;18.884;2023-03-03T21:49:49;40.20;;;16.70;;
56720;SDS011;53183;47.412;18.884;2023-03-03T21:52:18;36.40;;;16.35;;
56720;SDS011;53183;47.412;18.884;2023-03-03T21:54:48;39.17;;;15.52;;
56720;SDS011;53183;47.412;18.884;2023-03-03T21:57:16;41.58;;;17.87;;
56720;SDS011;53183;47.412;18.884;2023-03-03T21:59:44;35.03;;;15.55;;
56720;SDS011;53183;47.412;18.884;2023-03-03T22:02:11;29.55;;;13.48;;
56720;SDS011;53183;47.412;18.884;2023-03-03T22:04:39;32.42;;;14.13;;
56720;SDS011;53183;47.412;18.884;2023-03-03T22:07:07;35.40;;;13.48;;
56720;SDS011;53183;47.412;18.884;2023-03-03T22:09:34;43.90;;;14.23;;